sensor_id;sensor_type;location;lat;lon;timestamp;P1;durP1;ratioP1;P2;durP2;ratioP2
61911;SDS011;49973;52.084;5.412;2024-03-06T00:01:09;5.00;;;3.27;;
61911;SDS011;49973;52.084;5.412;2024-03-06T00:03:38;5.93;;;4.33;;
61911;SDS011;49973;52.084;5.412;2024-03-06T00:06:06;3.40;;;3.10;;
61911;SDS011;49973;52.084;5.412;2024-03-06T00:08:36;4.00;;;3.33;;
61911;SDS011;49973;52.084;5.412;2024-03-06T00:11:05;6.70;;;3.33;;
61911;SDS011;49973;52.084;5.412;2024-03-06T00:13:35;5.27;;;3.43;;
61911;SDS011;49973;52.084;5.412;2024-03-06T00:16:03;6.23;;;3.33;;
61911;SDS011;49973;52.084;5.412;2024-03-06T00:18:33;3.43;;;2.90;;
61911;SDS011;49973;52.084;5.412;2024-03-06T00:21:01;3.77;;;2.90;;
61911;SDS011;49973;52.084;5.412;2024-03-06T00:23:30;2.53;;;2.33;;
61911;SDS011;49973;52.084;5.412;2024-03-06T00:26:00;2.43;;;2.13;;
61911;SDS011;49973;52.084;5.412;2024-03-06T00:28:29;2.80;;;2.23;;
61911;SDS011;49973;52.084;5.412;2024-03-06T00:30:58;2.90;;;2.40;;
61911;SDS011;49973;52.084;5.412;2024-03-06T00:33:26;3.50;;;2.83;;
61911;SDS011;49973;52.084;5.412;2024-03-06T00:35:55;2.70;;;2.03;;
61911;SDS011;49973;52.084;5.412;2024-03-06T00:38:24;2.50;;;2.00;;
61911;SDS011;49973;52.084;5.412;2024-03-06T00:40:52;1.73;;;1.63;;
61911;SDS011;49973;52.084;5.412;2024-03-06T00:43:22;2.93;;;2.27;;
61911;SDS011;49973;52.084;5.412;2024-03-06T00:45:51;2.37;;;2.17;;
61911;SDS011;49973;52.084;5.412;2024-03-06T00:48:20;4.10;;;2.47;;
61911;SDS011;49973;52.084;5.412;2024-03-06T00:50:48;2.10;;;1.77;;
61911;SDS011;49973;52.084;5.412;2024-03-06T00:53:17;2.50;;;2.03;;
61911;SDS011;49973;52.084;5.412;2024-03-06T00:55:45;4.17;;;3.00;;
61911;SDS011;49973;52.084;5.412;2024-03-06T00:58:14;2.40;;;2.20;;
61911;SDS011;49973;52.084;5.412;2024-03-06T01:00:44;2.53;;;2.13;;
61911;SDS011;49973;52.084;5.412;2024-03-06T01:03:13;2.90;;;2.00;;
61911;SDS011;49973;52.084;5.412;2024-03-06T01:05:41;2.27;;;2.13;;
61911;SDS011;49973;52.084;5.412;2024-03-06T01:08:10;3.40;;;3.10;;
61911;SDS011;49973;52.084;5.412;2024-03-06T01:10:39;2.73;;;2.27;;
61911;SDS011;49973;52.084;5.412;2024-03-06T01:13:07;3.30;;;2.90;;
61911;SDS011;49973;52.084;5.412;2024-03-06T01:15:37;1.57;;;1.37;;
61911;SDS011;49973;52.084;5.412;2024-03-06T01:18:07;2.37;;;2.17;;
61911;SDS011;49973;52.084;5.412;2024-03-06T01:20:36;3.10;;;2.00;;
61911;SDS011;49973;52.084;5.412;2024-03-06T01:23:05;1.63;;;1.53;;
61911;SDS011;49973;52.084;5.412;2024-03-06T01:25:34;4.00;;;2.43;;
61911;SDS011;49973;52.084;5.412;2024-03-06T01:28:03;3.00;;;2.63;;
61911;SDS011;49973;52.084;5.412;2024-03-06T01:30:33;2.77;;;2.43;;
61911;SDS011;49973;52.084;5.412;2024-03-06T01:33:01;2.80;;;2.57;;
61911;SDS011;49973;52.084;5.412;2024-03-06T01:35:33;3.30;;;3.00;;
61911;SDS011;49973;52.084;5.412;2024-03-06T01:38:01;3.23;;;2.70;;
61911;SDS011;49973;52.084;5.412;2024-03-06T01:40:30;3.70;;;2.13;;
61911;SDS011;49973;52.084;5.412;2024-03-06T01:42:59;2.37;;;2.17;;
61911;SDS011;49973;52.084;5.412;2024-03-06T01:45:28;3.43;;;2.90;;
61911;SDS011;49973;52.084;5.412;2024-03-06T01:47:57;3.10;;;2.00;;
61911;SDS011;49973;52.084;5.412;2024-03-06T01:50:26;2.33;;;2.13;;
61911;SDS011;49973;52.084;5.412;2024-03-06T01:52:57;2.57;;;2.37;;
61911;SDS011;49973;52.084;5.412;2024-03-06T01:55:26;3.40;;;2.70;;
61911;SDS011;49973;52.084;5.412;2024-03-06T01:57:55;2.60;;;1.93;;
61911;SDS011;49973;52.084;5.412;2024-03-06T02:00:24;2.67;;;2.13;;
61911;SDS011;49973;52.084;5.412;2024-03-06T02:02:53;2.13;;;1.90;;
61911;SDS011;49973;52.084;5.412;2024-03-06T02:05:21;2.10;;;1.90;;
61911;SDS011;49973;52.084;5.412;2024-03-06T02:07:50;1.57;;;1.30;;
61911;SDS011;49973;52.084;5.412;2024-03-06T02:10:22;2.17;;;1.70;;
61911;SDS011;49973;52.084;5.412;2024-03-06T02:12:53;2.60;;;2.30;;
61911;SDS011;49973;52.084;5.412;2024-03-06T02:15:22;1.47;;;1.37;;
61911;SDS011;49973;52.084;5.412;2024-03-06T02:17:50;2.20;;;1.67;;
61911;SDS011;49973;52.084;5.412;2024-03-06T02:20:22;3.10;;;2.60;;
61911;SDS011;49973;52.084;5.412;2024-03-06T02:22:51;1.57;;;1.47;;
61911;SDS011;49973;52.084;5.412;2024-03-06T02:25:20;3.23;;;1.87;;
61911;SDS011;49973;52.084;5.412;2024-03-06T02:27:48;3.17;;;1.87;;
61911;SDS011;49973;52.084;5.412;2024-03-06T02:30:19;1.63;;;1.53;;
61911;SDS011;49973;52.084;5.412;2024-03-06T02:32:47;2.80;;;2.53;;
61911;SDS011;49973;52.084;5.412;2024-03-06T02:35:16;1.47;;;1.10;;
61911;SDS011;49973;52.084;5.412;2024-03-06T02:37:46;2.30;;;2.10;;
61911;SDS011;49973;52.084;5.412;2024-03-06T02:40:15;2.33;;;2.13;;
61911;SDS011;49973;52.084;5.412;2024-03-06T02:42:44;2.43;;;2.17;;
61911;SDS011;49973;52.084;5.412;2024-03-06T02:45:12;5.93;;;3.60;;
61911;SDS011;49973;52.084;5.412;2024-03-06T02:47:41;3.23;;;1.50;;
61911;SDS011;49973;52.084;5.412;2024-03-06T02:50:10;2.67;;;2.20;;
61911;SDS011;49973;52.084;5.412;2024-03-06T02:52:38;3.60;;;2.87;;
61911;SDS011;49973;52.084;5.412;2024-03-06T02:55:09;1.97;;;1.83;;
61911;SDS011;49973;52.084;5.412;2024-03-06T02:57:37;1.70;;;1.60;;
61911;SDS011;49973;52.084;5.412;2024-03-06T03:00:06;1.87;;;1.70;;
61911;SDS011;49973;52.084;5.412;2024-03-06T03:02:40;2.67;;;2.40;;
61911;SDS011;49973;52.084;5.412;2024-03-06T03:05:08;1.93;;;1.83;;
61911;SDS011;49973;52.084;5.412;2024-03-06T03:07:37;2.63;;;1.97;;
61911;SDS011;49973;52.084;5.412;2024-03-06T03:10:06;3.53;;;1.60;;
61911;SDS011;49973;52.084;5.412;2024-03-06T03:12:39;3.83;;;2.43;;
61911;SDS011;49973;52.084;5.412;2024-03-06T03:15:08;1.93;;;1.77;;
61911;SDS011;49973;52.084;5.412;2024-03-06T03:17:37;2.87;;;1.97;;
61911;SDS011;49973;52.084;5.412;2024-03-06T03:20:06;2.23;;;2.03;;
61911;SDS011;49973;52.084;5.412;2024-03-06T03:22:38;2.00;;;1.57;;
61911;SDS011;49973;52.084;5.412;2024-03-06T03:25:07;2.40;;;2.20;;
61911;SDS011;49973;52.084;5.412;2024-03-06T03:27:37;1.83;;;1.70;;
61911;SDS011;49973;52.084;5.412;2024-03-06T03:30:08;1.67;;;1.57;;
61911;SDS011;49973;52.084;5.412;2024-03-06T03:32:37;3.13;;;1.80;;
61911;SDS011;49973;52.084;5.412;2024-03-06T03:35:06;2.37;;;1.73;;
61911;SDS011;49973;52.084;5.412;2024-03-06T03:37:36;2.63;;;2.20;;
61911;SDS011;49973;52.084;5.412;2024-03-06T03:40:05;1.67;;;1.57;;
61911;SDS011;49973;52.084;5.412;2024-03-06T03:42:34;2.80;;;2.17;;
61911;SDS011;49973;52.084;5.412;2024-03-06T03:45:05;2.13;;;2.00;;
61911;SDS011;49973;52.084;5.412;2024-03-06T03:47:34;3.67;;;2.70;;
61911;SDS011;49973;52.084;5.412;2024-03-06T03:50:03;3.07;;;1.67;;
61911;SDS011;49973;52.084;5.412;2024-03-06T03:52:37;1.63;;;1.53;;
61911;SDS011;49973;52.084;5.412;2024-03-06T03:55:09;5.00;;;2.27;;
61911;SDS011;49973;52.084;5.412;2024-03-06T03:57:38;2.33;;;2.13;;
61911;SDS011;49973;52.084;5.412;2024-03-06T04:00:09;3.07;;;2.30;;
61911;SDS011;49973;52.084;5.412;2024-03-06T04:02:38;2.73;;;1.50;;
61911;SDS011;49973;52.084;5.412;2024-03-06T04:05:07;2.93;;;1.67;;
61911;SDS011;49973;52.084;5.412;2024-03-06T04:07:37;1.67;;;1.50;;
61911;SDS011;49973;52.084;5.412;2024-03-06T04:10:06;5.80;;;2.30;;
61911;SDS011;49973;52.084;5.412;2024-03-06T04:12:38;4.00;;;1.43;;
61911;SDS011;49973;52.084;5.412;2024-03-06T04:15:09;1.60;;;1.43;;
61911;SDS011;49973;52.084;5.412;2024-03-06T04:17:37;2.33;;;2.13;;
61911;SDS011;49973;52.084;5.412;2024-03-06T04:20:08;2.23;;;1.47;;
61911;SDS011;49973;52.084;5.412;2024-03-06T04:22:39;2.00;;;1.87;;
61911;SDS011;49973;52.084;5.412;2024-03-06T04:25:08;1.13;;;1.03;;
61911;SDS011;49973;52.084;5.412;2024-03-06T04:27:37;1.37;;;1.27;;
61911;SDS011;49973;52.084;5.412;2024-03-06T04:30:06;1.33;;;1.23;;
61911;SDS011;49973;52.084;5.412;2024-03-06T04:32:37;1.67;;;1.57;;
61911;SDS011;49973;52.084;5.412;2024-03-06T04:35:06;1.30;;;1.20;;
61911;SDS011;49973;52.084;5.412;2024-03-06T04:37:36;2.23;;;2.00;;
61911;SDS011;49973;52.084;5.412;2024-03-06T04:40:05;1.27;;;1.13;;
61911;SDS011;49973;52.084;5.412;2024-03-06T04:42:35;1.57;;;1.47;;
61911;SDS011;49973;52.084;5.412;2024-03-06T04:45:04;1.77;;;1.63;;
61911;SDS011;49973;52.084;5.412;2024-03-06T04:47:40;1.27;;;1.17;;
61911;SDS011;49973;52.084;5.412;2024-03-06T04:50:09;1.83;;;1.73;;
61911;SDS011;49973;52.084;5.412;2024-03-06T04:52:38;1.40;;;1.30;;
61911;SDS011;49973;52.084;5.412;2024-03-06T04:55:07;2.10;;;1.77;;
61911;SDS011;49973;52.084;5.412;2024-03-06T04:57:38;2.53;;;2.33;;
61911;SDS011;49973;52.084;5.412;2024-03-06T05:00:08;2.07;;;1.80;;
61911;SDS011;49973;52.084;5.412;2024-03-06T05:02:40;2.90;;;2.03;;
61911;SDS011;49973;52.084;5.412;2024-03-06T05:05:26;3.53;;;2.23;;
61911;SDS011;49973;52.084;5.412;2024-03-06T05:08:12;2.03;;;1.77;;
61911;SDS011;49973;52.084;5.412;2024-03-06T05:10:59;0.80;;;0.80;;
61911;SDS011;49973;52.084;5.412;2024-03-06T05:13:46;1.33;;;1.17;;
61911;SDS011;49973;52.084;5.412;2024-03-06T05:16:33;1.83;;;1.60;;
61911;SDS011;49973;52.084;5.412;2024-03-06T05:19:19;1.43;;;1.33;;
61911;SDS011;49973;52.084;5.412;2024-03-06T05:22:05;1.37;;;1.27;;
61911;SDS011;49973;52.084;5.412;2024-03-06T05:24:51;2.97;;;2.67;;
61911;SDS011;49973;52.084;5.412;2024-03-06T05:27:38;1.90;;;1.57;;
61911;SDS011;49973;52.084;5.412;2024-03-06T05:30:25;1.87;;;1.73;;
61911;SDS011;49973;52.084;5.412;2024-03-06T05:33:12;1.77;;;1.20;;
61911;SDS011;49973;52.084;5.412;2024-03-06T05:35:58;1.90;;;1.80;;
61911;SDS011;49973;52.084;5.412;2024-03-06T05:38:45;2.13;;;1.40;;
61911;SDS011;49973;52.084;5.412;2024-03-06T05:41:32;1.00;;;1.00;;
61911;SDS011;49973;52.084;5.412;2024-03-06T05:44:18;1.53;;;1.43;;
61911;SDS011;49973;52.084;5.412;2024-03-06T05:47:05;0.90;;;0.87;;
61911;SDS011;49973;52.084;5.412;2024-03-06T05:49:52;1.20;;;1.10;;
61911;SDS011;49973;52.084;5.412;2024-03-06T05:52:38;1.20;;;1.10;;
61911;SDS011;49973;52.084;5.412;2024-03-06T05:55:24;1.83;;;0.90;;
61911;SDS011;49973;52.084;5.412;2024-03-06T05:58:10;1.43;;;1.33;;
61911;SDS011;49973;52.084;5.412;2024-03-06T06:00:43;1.53;;;1.40;;
61911;SDS011;49973;52.084;5.412;2024-03-06T06:03:11;2.90;;;2.07;;
61911;SDS011;49973;52.084;5.412;2024-03-06T06:05:41;1.00;;;1.00;;
61911;SDS011;49973;52.084;5.412;2024-03-06T06:08:10;4.50;;;1.90;;
61911;SDS011;49973;52.084;5.412;2024-03-06T06:10:38;1.40;;;1.30;;
61911;SDS011;49973;52.084;5.412;2024-03-06T06:13:07;0.80;;;0.80;;
61911;SDS011;49973;52.084;5.412;2024-03-06T06:15:36;1.13;;;1.03;;
61911;SDS011;49973;52.084;5.412;2024-03-06T06:18:04;1.23;;;1.00;;
61911;SDS011;49973;52.084;5.412;2024-03-06T06:20:33;0.90;;;0.90;;
61911;SDS011;49973;52.084;5.412;2024-03-06T06:23:04;1.20;;;1.10;;
61911;SDS011;49973;52.084;5.412;2024-03-06T06:25:32;4.83;;;1.73;;
61911;SDS011;49973;52.084;5.412;2024-03-06T06:28:01;2.23;;;2.00;;
61911;SDS011;49973;52.084;5.412;2024-03-06T06:30:30;1.90;;;1.80;;
61911;SDS011;49973;52.084;5.412;2024-03-06T06:32:59;1.67;;;1.57;;
61911;SDS011;49973;52.084;5.412;2024-03-06T06:35:28;2.43;;;0.93;;
61911;SDS011;49973;52.084;5.412;2024-03-06T06:37:57;1.50;;;1.00;;
61911;SDS011;49973;52.084;5.412;2024-03-06T06:40:27;1.83;;;1.57;;
61911;SDS011;49973;52.084;5.412;2024-03-06T06:42:55;3.77;;;2.53;;
61911;SDS011;49973;52.084;5.412;2024-03-06T06:45:25;1.33;;;1.17;;
61911;SDS011;49973;52.084;5.412;2024-03-06T06:47:54;2.30;;;1.63;;
61911;SDS011;49973;52.084;5.412;2024-03-06T06:50:23;3.37;;;2.07;;
61911;SDS011;49973;52.084;5.412;2024-03-06T06:52:54;2.83;;;1.77;;
61911;SDS011;49973;52.084;5.412;2024-03-06T06:55:22;1.90;;;1.70;;
61911;SDS011;49973;52.084;5.412;2024-03-06T06:57:53;2.30;;;2.10;;
61911;SDS011;49973;52.084;5.412;2024-03-06T07:00:22;1.47;;;1.27;;
61911;SDS011;49973;52.084;5.412;2024-03-06T07:02:52;1.70;;;1.60;;
61911;SDS011;49973;52.084;5.412;2024-03-06T07:05:20;8.00;;;1.87;;
61911;SDS011;49973;52.084;5.412;2024-03-06T07:07:49;2.30;;;1.73;;
61911;SDS011;49973;52.084;5.412;2024-03-06T07:10:21;2.00;;;1.87;;
61911;SDS011;49973;52.084;5.412;2024-03-06T07:12:50;3.03;;;2.33;;
61911;SDS011;49973;52.084;5.412;2024-03-06T07:15:20;1.30;;;1.20;;
61911;SDS011;49973;52.084;5.412;2024-03-06T07:17:49;2.60;;;2.40;;
61911;SDS011;49973;52.084;5.412;2024-03-06T07:20:17;3.37;;;2.27;;
61911;SDS011;49973;52.084;5.412;2024-03-06T07:22:46;2.60;;;2.33;;
61911;SDS011;49973;52.084;5.412;2024-03-06T07:25:15;2.40;;;2.20;;
61911;SDS011;49973;52.084;5.412;2024-03-06T07:27:43;1.50;;;1.40;;
61911;SDS011;49973;52.084;5.412;2024-03-06T07:30:12;3.27;;;2.97;;
61911;SDS011;49973;52.084;5.412;2024-03-06T07:32:43;3.70;;;2.70;;
61911;SDS011;49973;52.084;5.412;2024-03-06T07:35:11;2.33;;;2.20;;
61911;SDS011;49973;52.084;5.412;2024-03-06T07:37:40;3.70;;;3.07;;
61911;SDS011;49973;52.084;5.412;2024-03-06T07:40:11;2.60;;;1.83;;
61911;SDS011;49973;52.084;5.412;2024-03-06T07:42:40;4.07;;;3.27;;
61911;SDS011;49973;52.084;5.412;2024-03-06T07:45:09;2.70;;;2.47;;
61911;SDS011;49973;52.084;5.412;2024-03-06T07:47:38;5.40;;;3.10;;
61911;SDS011;49973;52.084;5.412;2024-03-06T07:50:10;3.03;;;2.03;;
61911;SDS011;49973;52.084;5.412;2024-03-06T07:52:39;2.33;;;2.13;;
61911;SDS011;49973;52.084;5.412;2024-03-06T07:55:08;3.53;;;3.20;;
61911;SDS011;49973;52.084;5.412;2024-03-06T07:57:36;5.03;;;3.43;;
61911;SDS011;49973;52.084;5.412;2024-03-06T08:00:05;1.63;;;1.53;;
61911;SDS011;49973;52.084;5.412;2024-03-06T08:02:41;3.37;;;2.60;;
61911;SDS011;49973;52.084;5.412;2024-03-06T08:05:12;2.13;;;1.83;;
61911;SDS011;49973;52.084;5.412;2024-03-06T08:07:42;8.37;;;3.03;;
61911;SDS011;49973;52.084;5.412;2024-03-06T08:10:12;2.87;;;2.50;;
61911;SDS011;49973;52.084;5.412;2024-03-06T08:12:41;3.83;;;3.10;;
61911;SDS011;49973;52.084;5.412;2024-03-06T08:15:11;7.80;;;3.20;;
61911;SDS011;49973;52.084;5.412;2024-03-06T08:17:41;3.57;;;2.77;;
61911;SDS011;49973;52.084;5.412;2024-03-06T08:20:12;4.87;;;3.20;;
61911;SDS011;49973;52.084;5.412;2024-03-06T08:22:41;3.37;;;3.07;;
61911;SDS011;49973;52.084;5.412;2024-03-06T08:25:11;6.40;;;4.23;;
61911;SDS011;49973;52.084;5.412;2024-03-06T08:27:40;5.13;;;3.27;;
61911;SDS011;49973;52.084;5.412;2024-03-06T08:30:10;3.37;;;2.70;;
61911;SDS011;49973;52.084;5.412;2024-03-06T08:32:40;3.37;;;2.57;;
61911;SDS011;49973;52.084;5.412;2024-03-06T08:35:12;5.10;;;3.60;;
61911;SDS011;49973;52.084;5.412;2024-03-06T08:37:47;5.97;;;3.77;;
61911;SDS011;49973;52.084;5.412;2024-03-06T08:40:16;4.83;;;3.37;;
61911;SDS011;49973;52.084;5.412;2024-03-06T08:42:45;4.60;;;3.43;;
61911;SDS011;49973;52.084;5.412;2024-03-06T08:45:16;5.33;;;3.60;;
61911;SDS011;49973;52.084;5.412;2024-03-06T08:47:45;5.27;;;4.10;;
61911;SDS011;49973;52.084;5.412;2024-03-06T08:50:16;5.60;;;3.90;;
61911;SDS011;49973;52.084;5.412;2024-03-06T08:52:45;5.73;;;4.13;;
61911;SDS011;49973;52.084;5.412;2024-03-06T08:55:14;10.80;;;5.63;;
61911;SDS011;49973;52.084;5.412;2024-03-06T08:57:43;4.47;;;3.80;;
61911;SDS011;49973;52.084;5.412;2024-03-06T09:00:12;5.70;;;4.67;;
61911;SDS011;49973;52.084;5.412;2024-03-06T09:02:42;7.07;;;4.23;;
61911;SDS011;49973;52.084;5.412;2024-03-06T09:05:11;4.80;;;4.10;;
61911;SDS011;49973;52.084;5.412;2024-03-06T09:07:42;10.00;;;5.63;;
61911;SDS011;49973;52.084;5.412;2024-03-06T09:10:10;6.83;;;4.77;;
61911;SDS011;49973;52.084;5.412;2024-03-06T09:12:39;12.10;;;7.20;;
61911;SDS011;49973;52.084;5.412;2024-03-06T09:15:08;8.13;;;4.17;;
61911;SDS011;49973;52.084;5.412;2024-03-06T09:17:38;5.20;;;4.30;;
61911;SDS011;49973;52.084;5.412;2024-03-06T09:20:09;6.97;;;4.00;;
61911;SDS011;49973;52.084;5.412;2024-03-06T09:22:41;6.40;;;4.03;;
61911;SDS011;49973;52.084;5.412;2024-03-06T09:25:11;5.57;;;4.43;;
61911;SDS011;49973;52.084;5.412;2024-03-06T09:27:43;6.37;;;3.77;;
61911;SDS011;49973;52.084;5.412;2024-03-06T09:30:12;7.40;;;5.07;;
61911;SDS011;49973;52.084;5.412;2024-03-06T09:32:42;7.70;;;5.43;;
61911;SDS011;49973;52.084;5.412;2024-03-06T09:35:11;7.87;;;5.10;;
61911;SDS011;49973;52.084;5.412;2024-03-06T09:37:46;5.27;;;4.27;;
61911;SDS011;49973;52.084;5.412;2024-03-06T09:40:21;11.80;;;7.23;;
61911;SDS011;49973;52.084;5.412;2024-03-06T09:42:50;9.77;;;6.70;;
61911;SDS011;49973;52.084;5.412;2024-03-06T09:45:20;9.27;;;4.97;;
61911;SDS011;49973;52.084;5.412;2024-03-06T09:47:49;12.83;;;6.90;;
61911;SDS011;49973;52.084;5.412;2024-03-06T09:50:22;12.43;;;7.27;;
61911;SDS011;49973;52.084;5.412;2024-03-06T09:52:55;12.53;;;8.77;;
61911;SDS011;49973;52.084;5.412;2024-03-06T09:55:24;10.40;;;7.07;;
61911;SDS011;49973;52.084;5.412;2024-03-06T09:57:54;12.70;;;6.17;;
61911;SDS011;49973;52.084;5.412;2024-03-06T10:00:23;11.43;;;7.23;;
61911;SDS011;49973;52.084;5.412;2024-03-06T10:02:54;13.00;;;7.30;;
61911;SDS011;49973;52.084;5.412;2024-03-06T10:05:27;13.33;;;8.17;;
61911;SDS011;49973;52.084;5.412;2024-03-06T10:07:59;16.83;;;10.33;;
61911;SDS011;49973;52.084;5.412;2024-03-06T10:10:28;17.20;;;8.83;;
61911;SDS011;49973;52.084;5.412;2024-03-06T10:12:57;17.00;;;8.53;;
61911;SDS011;49973;52.084;5.412;2024-03-06T10:15:29;15.93;;;8.73;;
61911;SDS011;49973;52.084;5.412;2024-03-06T10:18:12;13.30;;;8.87;;
61911;SDS011;49973;52.084;5.412;2024-03-06T10:20:42;17.70;;;9.00;;
61911;SDS011;49973;52.084;5.412;2024-03-06T10:23:13;16.03;;;8.03;;
61911;SDS011;49973;52.084;5.412;2024-03-06T10:25:46;13.83;;;8.50;;
61911;SDS011;49973;52.084;5.412;2024-03-06T10:28:18;10.33;;;7.03;;
61911;SDS011;49973;52.084;5.412;2024-03-06T10:30:47;15.03;;;7.97;;
61911;SDS011;49973;52.084;5.412;2024-03-06T10:33:17;15.83;;;9.07;;
61911;SDS011;49973;52.084;5.412;2024-03-06T10:35:47;15.87;;;8.77;;
61911;SDS011;49973;52.084;5.412;2024-03-06T10:38:18;15.37;;;10.07;;
61911;SDS011;49973;52.084;5.412;2024-03-06T10:40:48;14.33;;;7.93;;
61911;SDS011;49973;52.084;5.412;2024-03-06T10:43:19;11.30;;;7.73;;
61911;SDS011;49973;52.084;5.412;2024-03-06T10:45:51;14.00;;;8.63;;
61911;SDS011;49973;52.084;5.412;2024-03-06T10:48:25;14.70;;;8.27;;
61911;SDS011;49973;52.084;5.412;2024-03-06T10:50:56;12.03;;;7.80;;
61911;SDS011;49973;52.084;5.412;2024-03-06T10:53:28;13.17;;;7.63;;
61911;SDS011;49973;52.084;5.412;2024-03-06T10:55:59;15.07;;;8.03;;
61911;SDS011;49973;52.084;5.412;2024-03-06T10:58:30;13.67;;;9.00;;
61911;SDS011;49973;52.084;5.412;2024-03-06T11:01:00;18.33;;;9.27;;
61911;SDS011;49973;52.084;5.412;2024-03-06T11:03:30;17.47;;;8.43;;
61911;SDS011;49973;52.084;5.412;2024-03-06T11:05:59;19.50;;;9.50;;
61911;SDS011;49973;52.084;5.412;2024-03-06T11:08:33;13.23;;;8.27;;
61911;SDS011;49973;52.084;5.412;2024-03-06T11:11:20;17.20;;;8.13;;
61911;SDS011;49973;52.084;5.412;2024-03-06T11:13:49;16.83;;;7.77;;
61911;SDS011;49973;52.084;5.412;2024-03-06T11:16:18;11.73;;;7.83;;
61911;SDS011;49973;52.084;5.412;2024-03-06T11:19:04;13.13;;;7.43;;
61911;SDS011;49973;52.084;5.412;2024-03-06T11:21:34;13.47;;;7.83;;
61911;SDS011;49973;52.084;5.412;2024-03-06T11:24:13;14.07;;;8.63;;
61911;SDS011;49973;52.084;5.412;2024-03-06T11:26:42;13.77;;;9.63;;
61911;SDS011;49973;52.084;5.412;2024-03-06T11:29:11;18.70;;;8.83;;
61911;SDS011;49973;52.084;5.412;2024-03-06T11:31:40;18.97;;;9.13;;
61911;SDS011;49973;52.084;5.412;2024-03-06T11:34:34;14.00;;;7.93;;
61911;SDS011;49973;52.084;5.412;2024-03-06T11:37:03;14.63;;;8.97;;
61911;SDS011;49973;52.084;5.412;2024-03-06T11:39:36;18.23;;;9.10;;
61911;SDS011;49973;52.084;5.412;2024-03-06T11:42:06;13.87;;;8.40;;
61911;SDS011;49973;52.084;5.412;2024-03-06T11:44:36;16.70;;;9.73;;
61911;SDS011;49973;52.084;5.412;2024-03-06T11:47:20;13.60;;;8.63;;
61911;SDS011;49973;52.084;5.412;2024-03-06T11:49:49;13.17;;;7.30;;
61911;SDS011;49973;52.084;5.412;2024-03-06T11:52:20;13.43;;;8.33;;
61911;SDS011;49973;52.084;5.412;2024-03-06T11:54:50;11.83;;;7.43;;
61911;SDS011;49973;52.084;5.412;2024-03-06T11:57:20;11.40;;;7.23;;
61911;SDS011;49973;52.084;5.412;2024-03-06T11:59:51;13.47;;;7.00;;
61911;SDS011;49973;52.084;5.412;2024-03-06T12:02:21;12.97;;;7.93;;
61911;SDS011;49973;52.084;5.412;2024-03-06T12:04:49;15.70;;;8.67;;
61911;SDS011;49973;52.084;5.412;2024-03-06T12:07:18;14.87;;;9.30;;
61911;SDS011;49973;52.084;5.412;2024-03-06T12:09:47;12.87;;;8.03;;
61911;SDS011;49973;52.084;5.412;2024-03-06T12:12:17;13.80;;;8.88;;
61911;SDS011;49973;52.084;5.412;2024-03-06T12:14:55;13.70;;;8.77;;
61911;SDS011;49973;52.084;5.412;2024-03-06T12:17:25;12.80;;;6.30;;
61911;SDS011;49973;52.084;5.412;2024-03-06T12:19:54;9.83;;;6.70;;
61911;SDS011;49973;52.084;5.412;2024-03-06T12:22:24;14.17;;;7.73;;
61911;SDS011;49973;52.084;5.412;2024-03-06T12:24:58;11.77;;;7.20;;
61911;SDS011;49973;52.084;5.412;2024-03-06T12:27:28;9.67;;;6.83;;
61911;SDS011;49973;52.084;5.412;2024-03-06T12:29:57;12.60;;;6.87;;
61911;SDS011;49973;52.084;5.412;2024-03-06T12:32:25;11.43;;;6.73;;
61911;SDS011;49973;52.084;5.412;2024-03-06T12:34:57;11.67;;;6.37;;
61911;SDS011;49973;52.084;5.412;2024-03-06T12:37:28;11.03;;;6.53;;
61911;SDS011;49973;52.084;5.412;2024-03-06T12:39:59;10.67;;;7.07;;
61911;SDS011;49973;52.084;5.412;2024-03-06T12:42:29;12.77;;;8.30;;
61911;SDS011;49973;52.084;5.412;2024-03-06T12:44:58;12.93;;;6.97;;
61911;SDS011;49973;52.084;5.412;2024-03-06T12:47:26;10.93;;;7.77;;
61911;SDS011;49973;52.084;5.412;2024-03-06T12:49:55;9.97;;;5.90;;
61911;SDS011;49973;52.084;5.412;2024-03-06T12:52:24;9.10;;;5.93;;
61911;SDS011;49973;52.084;5.412;2024-03-06T12:54:53;10.30;;;5.67;;
61911;SDS011;49973;52.084;5.412;2024-03-06T12:57:21;12.27;;;5.77;;
61911;SDS011;49973;52.084;5.412;2024-03-06T12:59:51;9.23;;;5.77;;
61911;SDS011;49973;52.084;5.412;2024-03-06T13:02:20;9.23;;;5.23;;
61911;SDS011;49973;52.084;5.412;2024-03-06T13:04:48;8.33;;;5.37;;
61911;SDS011;49973;52.084;5.412;2024-03-06T13:07:17;7.80;;;5.17;;
61911;SDS011;49973;52.084;5.412;2024-03-06T13:09:46;8.53;;;5.27;;
61911;SDS011;49973;52.084;5.412;2024-03-06T13:12:15;9.97;;;5.57;;
61911;SDS011;49973;52.084;5.412;2024-03-06T13:14:44;13.50;;;6.90;;
61911;SDS011;49973;52.084;5.412;2024-03-06T13:17:14;14.20;;;5.30;;
61911;SDS011;49973;52.084;5.412;2024-03-06T13:19:43;10.07;;;5.47;;
61911;SDS011;49973;52.084;5.412;2024-03-06T13:22:11;9.60;;;5.50;;
61911;SDS011;49973;52.084;5.412;2024-03-06T13:24:40;8.30;;;5.27;;
61911;SDS011;49973;52.084;5.412;2024-03-06T13:27:12;12.43;;;5.80;;
61911;SDS011;49973;52.084;5.412;2024-03-06T13:29:40;6.97;;;4.30;;
61911;SDS011;49973;52.084;5.412;2024-03-06T13:32:09;8.80;;;5.57;;
61911;SDS011;49973;52.084;5.412;2024-03-06T13:34:39;8.83;;;5.40;;
61911;SDS011;49973;52.084;5.412;2024-03-06T13:37:08;9.83;;;4.63;;
61911;SDS011;49973;52.084;5.412;2024-03-06T13:39:37;8.50;;;5.27;;
61911;SDS011;49973;52.084;5.412;2024-03-06T13:42:07;7.03;;;4.60;;
61911;SDS011;49973;52.084;5.412;2024-03-06T13:44:36;11.07;;;4.40;;
61911;SDS011;49973;52.084;5.412;2024-03-06T13:47:05;8.77;;;5.23;;
61911;SDS011;49973;52.084;5.412;2024-03-06T13:49:36;14.17;;;4.57;;
61911;SDS011;49973;52.084;5.412;2024-03-06T13:52:08;6.73;;;3.90;;
61911;SDS011;49973;52.084;5.412;2024-03-06T13:54:41;9.70;;;3.83;;
61911;SDS011;49973;52.084;5.412;2024-03-06T13:57:10;6.10;;;3.90;;
61911;SDS011;49973;52.084;5.412;2024-03-06T13:59:39;7.17;;;4.27;;
61911;SDS011;49973;52.084;5.412;2024-03-06T14:02:08;16.37;;;4.67;;
61911;SDS011;49973;52.084;5.412;2024-03-06T14:04:36;5.53;;;3.70;;
61911;SDS011;49973;52.084;5.412;2024-03-06T14:07:05;7.40;;;4.43;;
61911;SDS011;49973;52.084;5.412;2024-03-06T14:09:35;16.47;;;5.93;;
61911;SDS011;49973;52.084;5.412;2024-03-06T14:12:04;10.20;;;5.10;;
61911;SDS011;49973;52.084;5.412;2024-03-06T14:14:34;8.70;;;4.70;;
61911;SDS011;49973;52.084;5.412;2024-03-06T14:17:02;8.40;;;4.53;;
61911;SDS011;49973;52.084;5.412;2024-03-06T14:19:32;8.03;;;4.17;;
61911;SDS011;49973;52.084;5.412;2024-03-06T14:22:00;10.60;;;5.30;;
61911;SDS011;49973;52.084;5.412;2024-03-06T14:24:31;9.20;;;4.87;;
61911;SDS011;49973;52.084;5.412;2024-03-06T14:27:01;10.83;;;5.33;;
61911;SDS011;49973;52.084;5.412;2024-03-06T14:29:30;7.73;;;4.63;;
61911;SDS011;49973;52.084;5.412;2024-03-06T14:32:00;13.90;;;4.40;;
61911;SDS011;49973;52.084;5.412;2024-03-06T14:34:30;8.57;;;4.10;;
61911;SDS011;49973;52.084;5.412;2024-03-06T14:36:59;8.33;;;4.67;;
61911;SDS011;49973;52.084;5.412;2024-03-06T14:39:27;6.03;;;3.27;;
61911;SDS011;49973;52.084;5.412;2024-03-06T14:41:56;9.67;;;4.73;;
61911;SDS011;49973;52.084;5.412;2024-03-06T14:44:26;7.43;;;4.13;;
61911;SDS011;49973;52.084;5.412;2024-03-06T14:46:55;5.57;;;3.50;;
61911;SDS011;49973;52.084;5.412;2024-03-06T14:49:25;8.40;;;4.40;;
61911;SDS011;49973;52.084;5.412;2024-03-06T14:51:53;7.43;;;4.17;;
61911;SDS011;49973;52.084;5.412;2024-03-06T14:54:22;6.47;;;3.20;;
61911;SDS011;49973;52.084;5.412;2024-03-06T14:56:53;6.60;;;3.60;;
61911;SDS011;49973;52.084;5.412;2024-03-06T14:59:21;7.03;;;4.70;;
61911;SDS011;49973;52.084;5.412;2024-03-06T15:01:52;3.93;;;3.00;;
61911;SDS011;49973;52.084;5.412;2024-03-06T15:04:20;4.57;;;3.33;;
61911;SDS011;49973;52.084;5.412;2024-03-06T15:06:49;5.37;;;3.57;;